Time;durP1;ratioP1;P1;durP2;ratioP2;P2;SDS_P1;SDS_P2;PMS_P1;PMS_P2;Temp;Humidity;BMP_temperature;BMP_pressure;BME280_temperature;BME280_humidity;BME280_pressure;Samples;Min_cycle;Max_cycle;Signal;HPM_P1;HPM_P2
2023/07/21 00:00:26;;;;;;;10.40;3.80;;;;;;;-145.63;46.57;39090.75;5064366;28;20159;-68
2023/07/21 00:02:51;;;;;;;9.48;4.25;;;;;;;-145.63;46.61;39102.47;5045444;28;20123;-68
2023/07/21 00:05:17;;;;;;;9.52;4.95;;;;;;;-145.63;46.55;39061.41;5055696;28;20459;-69
2023/07/21 00:07:44;;;;;;;7.72;3.63;;;;;;;-145.63;47.13;39086.81;5054704;28;20044;-69
2023/07/21 00:10:10;;;;;;;7.75;3.65;;;;;;;-145.63;46.62;39065.31;5030418;28;20028;-68
2023/07/21 00:12:40;;;;;;;9.10;3.60;;;;;;;-145.63;46.94;39082.91;5064003;28;20040;-68
2023/07/21 00:15:06;;;;;;;8.50;4.40;;;;;;;-145.63;47.21;39131.81;5043948;28;20075;-69
2023/07/21 00:17:34;;;;;;;8.35;3.97;;;;;;;-145.63;47.12;39108.34;5061683;28;20033;-68
2023/07/21 00:20:11;;;;;;;5.43;3.92;;;;;;;-145.63;47.41;39118.13;5034773;28;20041;-69
2023/07/21 00:22:40;;;;;;;8.25;4.03;;;;;;;-145.63;47.39;39110.28;5051666;28;20093;-68
2023/07/21 00:25:08;;;;;;;8.75;3.42;;;;;;;-145.63;47.86;39106.38;5059931;28;20049;-69
2023/07/21 00:27:34;;;;;;;7.13;4.18;;;;;;;-145.63;47.78;39073.13;5043714;28;20357;-68
2023/07/21 00:30:00;;;;;;;6.57;3.47;;;;;;;-145.63;47.45;39090.75;5063097;28;20025;-68
2023/07/21 00:32:25;;;;;;;6.63;3.47;;;;;;;-145.63;47.60;39118.13;5045907;28;20067;-68
2023/07/21 00:34:52;;;;;;;9.10;4.20;;;;;;;-145.63;47.67;39114.22;5053484;28;20033;-69
2023/07/21 00:37:17;;;;;;;7.45;3.92;;;;;;;-145.63;48.13;39055.53;5052857;28;20052;-68
2023/07/21 00:39:44;;;;;;;7.68;3.58;;;;;;;-145.63;48.21;39106.38;5026372;28;20389;-68
2023/07/21 00:42:13;;;;;;;9.13;3.83;;;;;;;-145.63;48.56;39122.03;5044371;28;20198;-69
2023/07/21 00:44:39;;;;;;;7.93;4.30;;;;;;;-145.63;48.23;39106.38;5059779;28;20020;-69
2023/07/21 00:47:05;;;;;;;8.70;3.85;;;;;;;-145.63;48.52;39110.28;5051581;28;20092;-69
2023/07/21 00:49:33;;;;;;;6.20;3.60;;;;;;;-145.63;48.90;39127.91;5049377;28;20092;-69
2023/07/21 00:51:59;;;;;;;4.85;3.65;;;;;;;-145.63;48.62;39153.31;5059291;28;20324;-69
2023/07/21 00:54:25;;;;;;;8.40;3.17;;;;;;;-145.63;48.51;39110.28;5043299;28;20025;-68
2023/07/21 00:56:53;;;;;;;5.72;3.30;;;;;;;-145.63;48.36;39133.75;5061129;28;20064;-68
2023/07/21 00:59:18;;;;;;;9.88;3.70;;;;;;;-145.63;48.43;39114.22;5061963;28;20028;-68
2023/07/21 01:01:44;;;;;;;6.85;4.10;;;;;;;-145.63;48.36;39147.44;5054348;28;20053;-68
2023/07/21 01:04:10;;;;;;;5.25;3.67;;;;;;;-145.63;48.64;39125.94;5053118;28;20040;-68
2023/07/21 01:06:38;;;;;;;9.68;3.75;;;;;;;-145.63;49.07;38793.50;5041950;28;20025;-68
2023/07/21 01:09:06;;;;;;;6.20;3.53;;;;;;;-145.63;49.14;39135.72;5062285;28;20082;-68
2023/07/21 01:11:37;;;;;;;8.55;3.90;;;;;;;-145.63;48.94;39174.84;5047311;28;20026;-69
2023/07/21 01:14:05;;;;;;;6.40;3.42;;;;;;;-145.63;48.94;39133.75;5052605;28;20025;-68
2023/07/21 01:16:34;;;;;;;8.00;3.50;;;;;;;-145.63;49.05;39118.13;5062463;28;20036;-68
2023/07/21 01:19:01;;;;;;;4.65;3.83;;;;;;;-145.63;49.04;39102.47;5061221;28;20053;-70
2023/07/21 01:21:41;;;;;;;8.10;3.58;;;;;;;-145.63;49.08;39131.81;5061689;28;20064;-68
2023/07/21 01:24:12;;;;;;;5.43;3.35;;;;;;;-145.63;49.19;39098.56;5042491;28;20029;-68
2023/07/21 01:26:39;;;;;;;6.00;3.73;;;;;;;-145.63;49.17;39135.72;5042664;28;20033;-69
2023/07/21 01:29:08;;;;;;;5.93;4.18;;;;;;;-145.63;49.32;39127.91;5042730;28;20093;-68
2023/07/21 01:31:35;;;;;;;6.28;3.72;;;;;;;-145.63;49.44;39143.53;5054194;28;20047;-70
2023/07/21 01:34:03;;;;;;;8.38;3.85;;;;;;;-145.63;49.84;39149.41;5059038;28;20024;-69
2023/07/21 01:36:30;;;;;;;7.53;3.90;;;;;;;-145.63;50.22;39131.81;5051748;28;20033;-68
2023/07/21 01:38:56;;;;;;;5.53;3.30;;;;;;;-145.63;49.87;39116.16;5062618;28;20029;-67
2023/07/21 01:41:23;;;;;;;7.57;3.45;;;;;;;-145.63;49.68;39141.59;5049670;28;20029;-69
2023/07/21 01:43:49;;;;;;;7.38;3.60;;;;;;;-145.63;49.44;39127.91;5061909;28;20028;-69
2023/07/21 01:46:15;;;;;;;7.18;3.38;;;;;;;-145.63;49.50;39118.13;5041379;28;20037;-66
2023/07/21 01:48:41;;;;;;;6.50;3.85;;;;;;;-145.63;49.39;39125.94;5041493;28;20073;-68
2023/07/21 01:51:07;;;;;;;5.72;3.40;;;;;;;-145.63;49.14;39102.47;5042617;28;20365;-67
2023/07/21 01:53:37;;;;;;;7.30;3.25;;;;;;;-145.63;48.44;39112.25;5057468;28;20037;-69
2023/07/21 01:56:09;;;;;;;8.93;4.03;;;;;;;-145.63;48.78;39094.66;5061191;28;20025;-68
2023/07/21 01:58:37;;;;;;;7.78;3.58;;;;;;;-145.63;48.47;39157.22;5062422;28;20021;-69
2023/07/21 02:01:05;;;;;;;9.77;3.53;;;;;;;-145.63;48.83;39151.38;5059745;28;20024;-68
2023/07/21 02:03:32;;;;;;;4.65;3.33;;;;;;;-145.63;48.80;38537.34;5042624;28;20037;-68
2023/07/21 02:05:57;;;;;;;5.82;3.35;;;;;;;-145.63;48.58;39102.47;5059546;28;20233;-68
2023/07/21 02:08:23;;;;;;;7.95;3.35;;;;;;;-145.63;48.39;39125.94;5048806;28;20035;-67
2023/07/21 02:10:49;;;;;;;6.78;3.67;;;;;;;-145.63;48.42;39102.47;5051165;28;20033;-68
2023/07/21 02:13:15;;;;;;;6.50;3.58;;;;;;;-145.63;48.09;39159.19;5058306;28;20044;-70
2023/07/21 02:15:41;;;;;;;12.80;4.82;;;;;;;-145.63;48.33;39086.81;5043816;28;20218;-68
2023/07/21 02:18:06;;;;;;;6.25;3.38;;;;;;;-145.63;48.20;39100.50;5061149;28;20029;-68
2023/07/21 02:20:32;;;;;;;4.93;3.60;;;;;;;-145.63;48.59;39094.66;5062219;28;20028;-68
2023/07/21 02:22:58;;;;;;;5.03;3.22;;;;;;;-145.63;48.59;39082.91;5064531;28;20017;-69
2023/07/21 02:25:24;;;;;;;6.57;3.28;;;;;;;-145.63;48.67;39090.75;5060873;28;20052;-68
2023/07/21 02:27:50;;;;;;;7.65;3.33;;;;;;;-145.63;48.79;39106.38;5044956;28;20092;-68
2023/07/21 02:30:15;;;;;;;8.30;3.25;;;;;;;-145.63;48.93;39108.34;5065892;28;20029;-69
2023/07/21 02:32:42;;;;;;;4.88;2.92;;;;;;;-145.63;49.14;39086.81;5066076;28;20036;-69
2023/07/21 02:35:08;;;;;;;4.53;3.05;;;;;;;-145.63;48.96;39094.66;5065639;28;20036;-69
2023/07/21 02:37:33;;;;;;;5.53;3.05;;;;;;;-145.63;48.79;39084.88;5057809;28;20025;-70
2023/07/21 02:39:59;;;;;;;7.53;3.50;;;;;;;-145.63;48.20;39075.09;5046686;28;20029;-68
2023/07/21 02:42:25;;;;;;;7.82;3.63;;;;;;;-145.63;48.21;39077.06;5045747;28;20021;-69
2023/07/21 02:44:50;;;;;;;7.10;3.55;;;;;;;-145.63;47.92;39118.13;5062509;28;20075;-68
2023/07/21 02:47:16;;;;;;;6.53;3.78;;;;;;;-145.63;48.14;39075.09;5053352;28;20032;-68
2023/07/21 02:49:43;;;;;;;6.90;3.33;;;;;;;-145.63;48.46;39059.44;5045415;28;20094;-68
2023/07/21 02:52:08;;;;;;;8.70;3.33;;;;;;;-145.63;48.25;39055.53;5048122;28;20045;-68
2023/07/21 02:54:34;;;;;;;4.55;3.15;;;;;;;-145.63;48.38;39100.50;5065276;28;20032;-68
2023/07/21 02:57:00;;;;;;;11.90;3.20;;;;;;;-145.63;48.41;39014.47;5060620;28;20035;-69
2023/07/21 02:59:27;;;;;;;5.85;3.05;;;;;;;-145.63;48.39;39106.38;5065169;28;20029;-68
2023/07/21 03:01:55;;;;;;;5.03;3.00;;;;;;;-145.63;48.35;39122.03;5056262;28;20057;-69
2023/07/21 03:04:25;;;;;;;6.68;3.33;;;;;;;-145.63;48.16;39051.63;5049519;28;20056;-68
2023/07/21 03:06:51;;;;;;;8.02;2.90;;;;;;;-145.63;47.49;39082.91;5063695;28;20041;-68
2023/07/21 03:09:17;;;;;;;10.27;3.45;;;;;;;-145.63;46.95;39028.16;5045275;28;20053;-69
2023/07/21 03:11:43;;;;;;;4.80;2.65;;;;;;;-145.63;46.54;39018.38;5060590;28;20033;-69
2023/07/21 03:14:10;;;;;;;4.90;3.03;;;;;;;-145.63;46.38;39026.19;5054032;28;20071;-69
2023/07/21 03:16:36;;;;;;;7.40;2.75;;;;;;;-145.63;46.12;39071.19;5054916;28;20111;-68
2023/07/21 03:19:01;;;;;;;3.95;2.53;;;;;;;-145.63;46.48;38856.06;5062239;28;20044;-68
2023/07/21 03:21:27;;;;;;;5.88;2.88;;;;;;;-145.63;46.17;39049.66;5045278;28;20033;-68
2023/07/21 03:23:53;;;;;;;10.88;3.45;;;;;;;-145.63;46.34;39039.88;5060496;28;20043;-68
2023/07/21 03:26:20;;;;;;;5.55;2.80;;;;;;;-145.63;46.17;39035.97;5052556;28;20030;-68
2023/07/21 03:28:46;;;;;;;5.55;2.88;;;;;;;-145.63;45.89;39084.88;5052010;28;20041;-68
2023/07/21 03:31:11;;;;;;;4.32;2.60;;;;;;;-145.63;46.05;39032.06;5064768;28;20086;-70
2023/07/21 03:33:37;;;;;;;3.95;2.90;;;;;;;-145.63;45.89;39032.06;5064295;28;20404;-68
2023/07/21 03:36:04;;;;;;;7.00;3.78;;;;;;;-145.63;45.93;39039.88;5064503;28;20029;-68
2023/07/21 03:38:35;;;;;;;8.02;3.50;;;;;;;-145.63;45.89;39047.72;5064514;28;20037;-68
2023/07/21 03:41:08;;;;;;;6.40;2.90;;;;;;;-145.63;45.89;39039.88;5063765;28;20033;-68
2023/07/21 03:43:37;;;;;;;8.18;2.97;;;;;;;-145.63;45.96;39012.50;5058506;28;20029;-71
2023/07/21 03:46:05;;;;;;;7.63;2.97;;;;;;;-145.63;45.87;39037.94;5044433;28;20029;-68
2023/07/21 03:48:32;;;;;;;5.22;2.90;;;;;;;-145.63;45.98;39026.19;5044442;28;20282;-70
2023/07/21 03:51:02;;;;;;;4.20;2.80;;;;;;;-145.63;46.12;39032.06;5044194;28;20083;-68
2023/07/21 03:53:29;;;;;;;5.50;3.00;;;;;;;-145.63;45.97;39035.97;5057742;28;20305;-69
2023/07/21 03:55:55;;;;;;;4.32;2.78;;;;;;;-145.63;46.10;39024.25;5062147;28;20071;-68
2023/07/21 03:58:21;;;;;;;5.28;3.05;;;;;;;-145.63;45.53;39016.44;5062898;28;20021;-69
2023/07/21 04:00:48;;;;;;;6.25;2.95;;;;;;;-145.63;45.23;39022.28;5062745;28;20135;-68
2023/07/21 04:03:14;;;;;;;6.05;2.58;;;;;;;-145.63;45.09;38985.13;5062410;28;20100;-68
2023/07/21 04:05:40;;;;;;;6.93;2.83;;;;;;;-145.63;45.38;39014.47;5048892;28;20036;-69
2023/07/21 04:08:06;;;;;;;5.45;2.90;;;;;;;-145.63;45.17;39024.25;5053810;28;20099;-69
2023/07/21 04:10:32;;;;;;;4.45;2.60;;;;;;;-145.63;45.12;39014.47;5058641;28;20037;-68
2023/07/21 04:12:58;;;;;;;6.78;2.63;;;;;;;-145.63;45.11;39012.50;5043942;28;20100;-68
2023/07/21 04:15:25;;;;;;;6.45;3.00;;;;;;;-145.63;45.37;39022.28;5044182;28;20136;-68
2023/07/21 04:17:53;;;;;;;6.25;3.15;;;;;;;-145.63;45.20;39053.59;5062435;28;20029;-68
2023/07/21 04:20:22;;;;;;;8.20;3.30;;;;;;;-145.63;45.34;39026.19;5051741;28;20036;-68
2023/07/21 04:22:48;;;;;;;6.93;3.10;;;;;;;-145.63;45.66;38996.88;5030126;28;20029;-68
2023/07/21 04:25:15;;;;;;;7.05;2.90;;;;;;;-145.63;45.12;39016.44;5046131;28;20069;-68
2023/07/21 04:27:41;;;;;;;5.75;3.40;;;;;;;-145.63;44.94;39039.88;5062643;28;20210;-68
2023/07/21 04:30:07;;;;;;;6.30;3.15;;;;;;;-145.63;44.81;38992.97;5045384;28;20029;-68
2023/07/21 04:32:33;;;;;;;5.65;2.80;;;;;;;-145.63;44.83;38996.88;5060198;28;20096;-68
2023/07/21 04:34:59;;;;;;;6.28;3.20;;;;;;;-145.63;44.63;39000.78;5054654;28;20033;-69
2023/07/21 04:37:25;;;;;;;5.22;3.15;;;;;;;-145.63;44.43;39014.47;5049865;28;20028;-69
2023/07/21 04:39:51;;;;;;;8.48;2.90;;;;;;;-145.63;44.27;38985.13;5063353;28;20041;-69
2023/07/21 04:42:17;;;;;;;9.07;2.85;;;;;;;-145.63;43.96;38973.41;5062799;28;20025;-69
2023/07/21 04:44:44;;;;;;;7.43;3.03;;;;;;;-145.63;44.21;38965.56;5049006;28;20040;-69
2023/07/21 04:47:10;;;;;;;9.35;3.42;;;;;;;-145.63;43.89;38985.13;5063003;28;20029;-68
2023/07/21 04:49:36;;;;;;;5.63;2.78;;;;;;;-145.63;44.42;38973.41;5041822;28;20325;-69
2023/07/21 04:52:02;;;;;;;6.18;3.40;;;;;;;-145.63;43.94;38951.88;5025858;28;20033;-69
2023/07/21 04:54:28;;;;;;;7.05;3.25;;;;;;;-145.63;43.34;38965.56;5063086;28;20036;-68
2023/07/21 04:56:53;;;;;;;6.22;3.25;;;;;;;-145.63;43.83;38975.34;5059108;28;20036;-67
2023/07/21 04:59:20;;;;;;;5.18;3.55;;;;;;;-145.63;43.84;38965.56;5062942;28;20165;-68
2023/07/21 05:01:46;;;;;;;6.43;3.15;;;;;;;-145.63;43.89;38969.50;5056208;28;20049;-69
2023/07/21 05:04:14;;;;;;;5.50;3.22;;;;;;;-145.63;43.49;38953.84;5043858;28;20036;-68
2023/07/21 05:06:43;;;;;;;6.25;3.25;;;;;;;-145.63;43.86;38969.50;5061796;28;20049;-68
2023/07/21 05:09:10;;;;;;;6.13;3.50;;;;;;;-145.63;43.39;38967.53;5044817;28;20305;-69
2023/07/21 05:11:35;;;;;;;7.05;3.30;;;;;;;-145.63;43.57;38918.66;5056591;28;20036;-68
2023/07/21 05:14:03;;;;;;;4.63;3.65;;;;;;;-145.63;43.42;38924.50;5053998;28;20033;-69
2023/07/21 05:16:29;;;;;;;6.88;3.55;;;;;;;-145.63;42.78;38879.53;5051876;28;20048;-69
2023/07/21 05:18:55;;;;;;;11.10;3.63;;;;;;;-145.63;43.17;38906.91;5062809;28;20063;-68
2023/07/21 05:21:21;;;;;;;6.05;3.40;;;;;;;-145.63;43.27;38881.50;5041893;28;20325;-69
2023/07/21 05:23:46;;;;;;;6.70;3.72;;;;;;;-145.63;43.17;38859.97;5057589;28;20017;-68
2023/07/21 05:26:12;;;;;;;4.93;3.60;;;;;;;-145.63;42.90;38816.97;5052530;28;20306;-68
2023/07/21 05:28:38;;;;;;;10.45;4.20;;;;;;;-145.63;41.55;38809.13;5042677;28;20036;-68
2023/07/21 05:31:04;;;;;;;6.85;3.83;;;;;;;-145.63;42.08;38809.13;5050096;28;20099;-68
2023/07/21 05:33:29;;;;;;;6.47;3.50;;;;;;;-145.63;42.43;38822.81;5062912;28;20089;-68
2023/07/21 05:36:07;;;;;;;8.82;3.95;;;;;;;-145.63;41.72;38762.22;5051742;28;20092;-68
2023/07/21 05:38:33;;;;;;;8.55;3.53;;;;;;;-145.63;41.82;38746.56;5061497;28;20043;-68
2023/07/21 05:40:59;;;;;;;8.88;3.92;;;;;;;-145.63;41.46;38799.34;5062127;28;20277;-68
2023/07/21 05:43:24;;;;;;;6.63;3.95;;;;;;;-145.63;41.23;38711.38;5061359;28;20021;-69
2023/07/21 05:45:50;;;;;;;5.95;3.88;;;;;;;-145.63;41.41;38758.28;5062594;28;20032;-69
2023/07/21 05:48:15;;;;;;;6.88;3.75;;;;;;;-145.63;40.73;38719.19;5043866;28;20025;-68
2023/07/21 05:50:41;;;;;;;7.50;3.30;;;;;;;-145.63;40.36;38711.38;5042583;28;20101;-68
2023/07/21 05:53:07;;;;;;;9.52;3.95;;;;;;;-145.63;39.85;38734.81;5051739;28;20032;-68
2023/07/21 05:55:32;;;;;;;7.13;3.67;;;;;;;-145.63;40.40;38691.81;5062535;28;20029;-67
2023/07/21 05:57:58;;;;;;;5.80;3.35;;;;;;;-145.63;40.28;38685.94;5066466;28;20044;-69
2023/07/21 06:00:25;;;;;;;5.95;3.50;;;;;;;-145.63;40.08;38668.34;5051165;28;20028;-68
2023/07/21 06:02:51;;;;;;;9.13;3.50;;;;;;;-145.63;39.41;38680.06;5055037;28;20080;-68
2023/07/21 06:05:17;;;;;;;8.18;3.63;;;;;;;-145.63;39.50;38689.84;5054131;28;20088;-68
2023/07/21 06:07:44;;;;;;;7.22;3.03;;;;;;;-145.63;39.94;38652.69;5056898;28;20250;-68
2023/07/21 06:10:13;;;;;;;7.63;2.88;;;;;;;-145.63;38.53;38676.16;5055100;28;20025;-69
2023/07/21 06:12:39;;;;;;;4.80;3.10;;;;;;;-145.63;38.79;38623.38;5056114;28;20018;-69
2023/07/21 06:15:09;;;;;;;5.32;2.53;;;;;;;-145.63;38.08;38709.41;5054976;28;20048;-68
2023/07/21 06:17:34;;;;;;;7.85;3.40;;;;;;;-145.63;38.15;38664.44;5056506;28;20025;-69
2023/07/21 06:20:00;;;;;;;4.35;2.88;;;;;;;-145.63;38.01;38625.31;5055561;28;20037;-70
2023/07/21 06:22:26;;;;;;;8.07;3.80;;;;;;;-145.63;37.49;38697.69;5055281;28;20079;-69
2023/07/21 06:24:52;;;;;;;7.53;3.17;;;;;;;-145.63;37.99;38631.19;5053701;28;20029;-70
2023/07/21 06:27:18;;;;;;;4.90;2.78;;;;;;;-145.63;36.94;38660.53;5054675;28;20302;-69
2023/07/21 06:29:44;;;;;;;6.97;3.03;;;;;;;-145.63;37.32;38633.16;5052007;28;20040;-68
2023/07/21 06:32:09;;;;;;;7.35;3.10;;;;;;;-145.63;37.74;38605.78;5053373;28;20333;-69
2023/07/21 06:34:36;;;;;;;4.90;3.03;;;;;;;-145.63;37.31;38629.22;5054357;28;20034;-68
2023/07/21 06:37:02;;;;;;;3.92;2.88;;;;;;;-145.63;37.32;38672.25;5056049;28;20033;-69
2023/07/21 06:39:28;;;;;;;4.28;2.72;;;;;;;-145.63;37.21;38617.50;5039331;28;20025;-68
2023/07/21 06:41:53;;;;;;;5.03;2.42;;;;;;;-145.63;37.14;38615.53;5055306;28;20059;-68
2023/07/21 06:44:20;;;;;;;5.05;2.55;;;;;;;-145.63;37.48;38611.63;5055911;28;20298;-69
2023/07/21 06:46:49;;;;;;;7.00;2.72;;;;;;;-145.63;36.81;38551.03;5056188;28;20029;-66
2023/07/21 06:49:15;;;;;;;10.68;3.00;;;;;;;-145.63;37.03;38582.31;5038879;28;20021;-69
2023/07/21 06:51:42;;;;;;;5.22;2.63;;;;;;;-145.63;36.72;38586.22;5054797;28;20040;-69
2023/07/21 06:54:08;;;;;;;5.40;2.72;;;;;;;-145.63;36.75;38568.63;5055277;28;20048;-68
2023/07/21 06:56:34;;;;;;;8.07;2.88;;;;;;;-145.63;36.01;38570.56;5057910;28;20317;-69
2023/07/21 06:59:00;;;;;;;6.75;2.60;;;;;;;-145.63;35.27;38572.53;5055365;28;20104;-68
2023/07/21 07:01:25;;;;;;;7.60;2.90;;;;;;;-145.63;35.68;38609.69;5053177;28;20072;-68
2023/07/21 07:03:51;;;;;;;2.80;2.10;;;;;;;-145.63;35.73;38578.41;5054149;28;20036;-69
2023/07/21 07:06:17;;;;;;;3.80;2.50;;;;;;;-145.63;33.71;38568.63;5055180;28;20340;-68
2023/07/21 07:08:43;;;;;;;5.05;2.40;;;;;;;-145.63;34.09;38580.34;5053599;28;20032;-68
2023/07/21 07:11:09;;;;;;;7.45;2.80;;;;;;;-145.63;34.29;38552.97;5053669;28;20084;-69
2023/07/21 07:13:35;;;;;;;4.50;2.10;;;;;;;-145.63;34.77;38562.75;5059057;28;20086;-68
2023/07/21 07:16:00;;;;;;;6.75;2.45;;;;;;;-145.63;34.11;38498.22;5056679;28;20029;-69
2023/07/21 07:18:26;;;;;;;8.15;3.83;;;;;;;-145.63;34.20;38543.19;5051928;28;20084;-68
2023/07/21 07:20:55;;;;;;;5.78;2.55;;;;;;;-145.63;33.66;38523.66;5049750;28;20477;-69
2023/07/21 07:23:21;;;;;;;4.65;2.17;;;;;;;-145.63;33.52;38531.47;5054461;28;20087;-69
2023/07/21 07:25:51;;;;;;;6.43;1.95;;;;;;;-145.63;32.91;38545.16;5053937;28;20029;-67
2023/07/21 07:28:18;;;;;;;5.47;1.98;;;;;;;-145.63;33.18;38515.81;5044622;28;20041;-68
2023/07/21 07:30:45;;;;;;;7.07;2.22;;;;;;;-145.63;33.41;38535.38;5031174;28;20229;-69
2023/07/21 07:33:11;;;;;;;8.88;2.03;;;;;;;-145.63;32.66;38488.44;5063237;28;20025;-69
2023/07/21 07:35:37;;;;;;;4.43;2.00;;;;;;;-145.63;32.20;38508.00;5063730;28;20036;-69
2023/07/21 07:38:03;;;;;;;2.92;1.83;;;;;;;-145.63;31.46;38508.00;5056758;28;20029;-68
2023/07/21 07:40:28;;;;;;;6.35;2.10;;;;;;;-145.63;32.32;38515.81;5051212;28;20041;-68
2023/07/21 07:42:54;;;;;;;3.90;1.83;;;;;;;-145.63;31.66;38500.19;5053545;28;20029;-68
2023/07/21 07:45:20;;;;;;;4.47;2.00;;;;;;;-145.63;32.04;38443.47;5054198;28;20036;-67
2023/07/21 07:47:46;;;;;;;4.50;1.67;;;;;;;-145.63;32.01;38441.53;5049751;28;20205;-68
2023/07/21 07:50:11;;;;;;;5.07;1.77;;;;;;;-145.63;31.91;38470.84;5054986;28;20067;-69
2023/07/21 07:52:39;;;;;;;4.40;1.65;;;;;;;-145.63;31.42;38459.13;5055527;28;20313;-69
2023/07/21 07:55:06;;;;;;;4.55;1.73;;;;;;;-145.63;31.02;38451.28;5045942;28;20021;-70
2023/07/21 07:57:31;;;;;;;2.90;1.60;;;;;;;-145.63;31.21;38382.88;5061726;28;20032;-69
2023/07/21 07:59:57;;;;;;;4.65;2.08;;;;;;;-145.63;30.51;38416.09;5042976;28;20021;-69
2023/07/21 08:02:23;;;;;;;6.97;1.98;;;;;;;-145.63;30.37;38441.53;5052855;28;20052;-67
2023/07/21 08:04:49;;;;;;;3.85;1.52;;;;;;;-145.63;29.42;38400.47;5057721;28;20029;-68
2023/07/21 08:07:14;;;;;;;7.20;1.65;;;;;;;-145.63;29.98;38449.34;5049183;28;20330;-68
2023/07/21 08:09:40;;;;;;;3.95;1.65;;;;;;;-145.63;29.12;38445.44;5051695;28;20048;-68
2023/07/21 08:12:06;;;;;;;3.25;1.50;;;;;;;-145.63;30.10;38390.69;5053395;28;20031;-68
2023/07/21 08:14:31;;;;;;;2.70;1.60;;;;;;;-145.63;29.05;38404.38;5051505;28;20088;-69
2023/07/21 08:17:01;;;;;;;3.70;1.75;;;;;;;-145.63;29.38;38408.28;5054509;28;20033;-69
2023/07/21 08:19:29;;;;;;;2.15;1.73;;;;;;;-145.63;28.95;38353.53;5051676;28;20021;-68
2023/07/21 08:21:55;;;;;;;2.67;1.40;;;;;;;-145.63;28.55;38384.81;5053096;28;20096;-68
2023/07/21 08:24:21;;;;;;;4.20;1.50;;;;;;;-145.63;29.34;38359.41;5052221;28;20044;-67
2023/07/21 08:26:46;;;;;;;3.38;1.98;;;;;;;-145.63;29.73;38394.59;5054293;28;20179;-68
2023/07/21 08:29:12;;;;;;;2.45;1.48;;;;;;;-145.63;29.48;38398.50;5052518;28;20030;-68
2023/07/21 08:31:37;;;;;;;3.25;1.90;;;;;;;-145.63;30.73;38375.03;5053217;28;20041;-69
2023/07/21 08:34:03;;;;;;;3.00;1.98;;;;;;;-145.63;30.10;38431.75;5034416;28;20052;-68
2023/07/21 08:36:29;;;;;;;7.80;2.08;;;;;;;-145.63;30.65;38427.84;5050768;28;20029;-68
2023/07/21 08:38:54;;;;;;;4.85;2.05;;;;;;;-145.63;32.46;38496.28;5052731;28;20033;-68
2023/07/21 08:41:20;;;;;;;3.78;2.00;;;;;;;-145.63;32.57;38474.75;5051750;28;20036;-67
2023/07/21 08:43:47;;;;;;;3.33;1.90;;;;;;;-145.63;31.08;38418.06;5050230;28;20025;-69
2023/07/21 08:46:12;;;;;;;5.95;2.03;;;;;;;-145.63;31.76;38400.47;5051476;28;20198;-68
2023/07/21 08:48:39;;;;;;;7.95;2.30;;;;;;;-145.63;31.70;38359.41;5055323;28;20035;-68
2023/07/21 08:51:05;;;;;;;5.15;2.20;;;;;;;-145.63;30.69;38402.41;5052424;28;20040;-68
2023/07/21 08:53:31;;;;;;;3.53;2.03;;;;;;;-145.63;30.59;38306.59;5050198;28;20033;-68
2023/07/21 08:55:59;;;;;;;6.00;1.67;;;;;;;-145.63;30.02;38361.34;5050532;28;20017;-68
2023/07/21 08:58:25;;;;;;;2.90;1.92;;;;;;;-145.63;30.26;38249.91;5049387;28;20345;-67
2023/07/21 09:00:53;;;;;;;4.65;2.30;;;;;;;-145.63;29.07;38326.16;5050569;28;20037;-69
2023/07/21 09:03:24;;;;;;;4.15;1.90;;;;;;;-145.63;30.25;38367.22;5045670;28;20108;-68
2023/07/21 09:05:50;;;;;;;3.63;2.00;;;;;;;-145.63;29.55;38412.19;5056296;28;20033;-68
2023/07/21 09:08:31;;;;;;;3.72;1.50;;;;;;;-145.63;28.74;38410.22;5053550;28;20030;-68
2023/07/21 09:11:01;;;;;;;3.77;1.60;;;;;;;-145.63;29.58;38375.03;5048224;28;20029;-69
2023/07/21 09:13:28;;;;;;;3.45;1.77;;;;;;;-145.63;29.16;38380.91;5051162;28;20014;-68
2023/07/21 09:15:56;;;;;;;3.20;1.45;;;;;;;-145.63;30.15;38378.94;5054673;28;20025;-68
2023/07/21 09:18:29;;;;;;;5.57;1.95;;;;;;;-145.63;28.99;38380.91;5042828;28;20057;-68
2023/07/21 09:20:56;;;;;;;5.43;1.83;;;;;;;-145.63;28.96;38517.78;5056750;28;20085;-65
2023/07/21 09:23:23;;;;;;;3.28;1.73;;;;;;;-145.63;29.46;38408.28;5053344;28;20025;-68
2023/07/21 09:25:49;;;;;;;2.58;1.60;;;;;;;-145.63;28.54;38425.88;5042537;28;20322;-68
2023/07/21 09:28:15;;;;;;;2.13;1.80;;;;;;;-145.63;29.83;38437.59;5042577;28;20039;-68
2023/07/21 09:30:53;;;;;;;2.33;1.70;;;;;;;-145.63;28.76;38367.22;5047015;28;20048;-68
2023/07/21 09:33:23;;;;;;;2.17;1.40;;;;;;;-145.63;28.60;38367.22;5066585;28;20096;-69
2023/07/21 09:35:50;;;;;;;3.92;1.55;;;;;;;-145.63;28.38;38308.56;5057173;28;20029;-68
2023/07/21 09:38:16;;;;;;;3.85;1.50;;;;;;;-145.63;27.28;38287.06;5066512;28;20037;-69
2023/07/21 09:40:42;;;;;;;1.23;1.13;;;;;;;-145.63;26.42;38115.00;5063966;28;20024;-68
2023/07/21 09:43:09;;;;;;;3.20;1.17;;;;;;;-145.63;25.48;38302.69;5066812;28;20036;-69
2023/07/21 09:45:36;;;;;;;1.55;1.23;;;;;;;-145.63;26.19;38335.94;5047268;28;20033;-68
2023/07/21 09:48:02;;;;;;;2.13;1.33;;;;;;;-145.63;26.05;38251.84;5061501;28;20245;-69
2023/07/21 09:50:28;;;;;;;2.67;1.50;;;;;;;-145.63;25.99;38302.69;5066482;28;20028;-67
2023/07/21 09:52:55;;;;;;;3.10;1.40;;;;;;;-145.63;26.53;38263.59;5061431;28;20056;-69
2023/07/21 09:55:22;;;;;;;5.30;1.50;;;;;;;-145.63;25.66;38253.81;5046231;28;20021;-67
2023/07/21 09:57:49;;;;;;;2.58;1.20;;;;;;;-145.63;26.14;38210.81;5045507;28;20041;-68
2023/07/21 10:00:17;;;;;;;2.45;1.30;;;;;;;-145.63;25.76;38212.75;5062427;28;20040;-68
2023/07/21 10:02:45;;;;;;;2.90;1.30;;;;;;;-145.63;25.41;38263.59;5053718;28;20045;-68
2023/07/21 10:05:11;;;;;;;3.15;1.48;;;;;;;-145.63;25.92;38236.22;5050499;28;20048;-68
2023/07/21 10:07:48;;;;;;;2.92;1.75;;;;;;;-145.63;25.45;38318.34;5057595;28;20025;-67
2023/07/21 10:10:16;;;;;;;1.70;1.30;;;;;;;-145.63;26.40;38261.63;5054685;28;20034;-67
2023/07/21 10:12:49;;;;;;;3.05;1.40;;;;;;;-145.63;26.16;38232.31;5056167;28;20067;-69
2023/07/21 10:15:33;;;;;;;5.57;1.40;;;;;;;-145.63;25.66;38204.94;5055239;28;20020;-68
2023/07/21 10:18:14;;;;;;;3.17;1.40;;;;;;;-145.63;26.48;38204.94;5053090;28;20253;-67
2023/07/21 10:20:52;;;;;;;5.10;1.52;;;;;;;-145.63;26.48;38199.06;5055417;28;20035;-68
2023/07/21 10:23:24;;;;;;;3.92;1.40;;;;;;;-145.63;26.05;38158.00;5055171;28;20037;-67
2023/07/21 10:26:04;;;;;;;3.97;1.65;;;;;;;-145.63;26.02;38273.38;5054363;28;20201;-68
2023/07/21 10:28:35;;;;;;;2.63;1.30;;;;;;;-145.63;26.49;38214.72;5055409;28;20029;-68
2023/07/21 10:31:23;;;;;;;2.55;1.58;;;;;;;-145.63;25.66;38232.31;5058061;28;20048;-69
2023/07/21 10:34:10;;;;;;;1.90;1.40;;;;;;;-145.63;26.55;38242.09;5055500;28;20111;-67
2023/07/21 10:36:51;;;;;;;2.95;1.88;;;;;;;-145.63;26.43;38269.47;5056018;28;20191;-67
2023/07/21 10:39:26;;;;;;;5.03;1.70;;;;;;;-145.63;26.99;38353.53;5055051;28;20028;-67
2023/07/21 10:41:56;;;;;;;3.25;1.20;;;;;;;-145.63;28.00;38365.25;5055285;28;20322;-67
2023/07/21 10:44:22;;;;;;;2.00;1.23;;;;;;;-145.63;28.67;38330.06;5054949;28;20025;-67
2023/07/21 10:46:50;;;;;;;4.07;1.60;;;;;;;-145.63;28.99;38367.22;5055544;28;20305;-68
2023/07/21 10:49:17;;;;;;;3.95;1.48;;;;;;;-145.63;29.20;38386.78;5062577;28;20333;-70
2023/07/21 10:51:50;;;;;;;4.25;1.70;;;;;;;-145.63;29.38;38373.09;5048200;28;20056;-72
2023/07/21 10:54:17;;;;;;;3.08;1.58;;;;;;;-145.63;30.12;38384.81;5050083;28;20283;-68
2023/07/21 10:56:48;;;;;;;2.97;1.42;;;;;;;-145.63;30.23;38408.28;5056949;28;20037;-69
2023/07/21 10:59:15;;;;;;;3.35;1.50;;;;;;;-145.63;28.71;38363.31;5060233;28;20086;-68
2023/07/21 11:01:41;;;;;;;1.20;1.10;;;;;;;-145.63;29.48;38310.50;5064112;28;20064;-69
2023/07/21 11:04:07;;;;;;;1.95;1.38;;;;;;;-145.63;29.22;38306.59;5057131;28;20324;-68
2023/07/21 11:06:38;;;;;;;1.77;1.10;;;;;;;-145.63;29.21;38265.53;5054669;28;20213;-68
2023/07/21 11:09:04;;;;;;;5.67;1.30;;;;;;;-145.63;27.62;38310.50;5054841;28;20030;-68
2023/07/21 11:11:29;;;;;;;3.20;1.48;;;;;;;-145.63;27.53;38306.59;5054920;28;20417;-69
2023/07/21 11:13:55;;;;;;;3.05;1.45;;;;;;;-145.63;27.33;38253.81;5054302;28;20017;-68
2023/07/21 11:16:21;;;;;;;1.25;1.00;;;;;;;-145.63;26.46;38289.00;5055700;28;20021;-69